Miles, Iowa
Current Conditions -  °F | °C
As of 9:15 AM on Saturday 25 Oct 2014 (Local Time) from KSFY Reporting Station
Clear Clear  
Wind Chill: 58°   Ceiling: Unl
Heat Index: 58°   Visibility: 7mi
Dew Point: 52°   Wind: 6mph
Humidity: 80%   Direction: 300°WNW
Pressure: 30"   Gusts: NA
Location:  42.05°N, 90.32°W
Report Text: KSFY 251415Z AUTO 30005KT 7SM CLR 15/11 A3000 RMK AO2 T01450111
Loading
Personal Weather Stations






























Interactive Weather Map
Tropical Storm Tracking
New forecast layout! Learn more

10-Day Weather Forecast

Advertisements
Track Severe Weather on mobile